Currently 51°F in San Jacinto, California, USA
51°F
53°F / 48°F
calm
0.00"
Wednesday, January 19, 2022 8:34 AM PST

San Jacinto, California Weather Summary
Last 36 Hours

Temperature Winds Hourly Humidity Dewpoint
Time Report Norm Report Norm Max Gusts Precip. Rpt. Norm Rpt. Norm Pressure
1Wed 08:34 AM  51.3°F  49°F  calm  1 mph  none  0.00"  77%  68%  44°F  39°F  30.19"
Wed 08:00 AM  49.6°F  46°F  calm  calm  none  0.00"  79%  72%  43°F  38°F  30.17"
3Wed 07:04 AM  48.4°F  44°F  calm  1 mph  none  ----  82%  75%  43°F  37°F  30.17"
Wed 07:00 AM  48.6°F  44°F  calm  1 mph  none  0.00"  83%  75%  43°F  37°F  30.17"
Wed 06:00 AM  48.9°F  44°F  calm  1 mph  none  0.00"  84%  75%  44°F  37°F  30.15"
Wed 05:00 AM  51.1°F  45°F  calm  1 mph  none  0.00"  83%  74%  46°F  37°F  30.14"
Wed 04:00 AM  51.8°F  46°F  calm  calm  none  0.00"  84%  73%  47°F  37°F  30.13"
Wed 03:00 AM  53.2°F  46°F  calm  1 mph  none  0.00"  88%  72%  50°F  38°F  30.13"
2Wed 02:38 AM  53.4°F  47°F  calm  1 mph  none  ----  90%  72%  50°F  38°F  30.13"
Wed 02:00 AM  53.1°F  47°F  calm  1 mph  none  0.00"  90%  71%  50°F  38°F  30.13"
Wed 01:00 AM  52.9°F  48°F  calm  1 mph  none  0.00"  89%  69%  50°F  38°F  30.13"
Wed 12:00 AM  53.1°F  49°F  calm  1 mph  none  0.00"  88%  67%  50°F  38°F  30.13"
Tue 11:00 PM  54.0°F  50°F  calm  1 mph  none  0.00"  87%  65%  50°F  38°F  30.13"
Tue 10:00 PM  54.7°F  51°F  calm  calm  none  0.00"  85%  63%  50°F  38°F  30.14"
Tue 09:00 PM  54.9°F  53°F  calm  1 mph  none  0.00"  84%  61%  50°F  39°F  30.12"
Tue 08:00 PM  55.8°F  54°F  calm  1 mph  none  0.00"  82%  57%  50°F  39°F  30.10"
Tue 07:00 PM  57.4°F  57°F  calm  1 mph  none  0.00"  77%  54%  50°F  39°F  30.09"
Tue 06:00 PM  58.3°F  59°F  calm  1 mph  none  0.00"  79%  50%  52°F  40°F  30.07"
Tue 05:00 PM  59.7°F  62°F  calm  1 mph  none  0.00"  71%  44%  50°F  40°F  30.06"
Tue 04:00 PM  59.7°F  65°F  calm  2 mph  none  0.00"  68%  39%  49°F  39°F  30.06"
Tue 03:00 PM  60.1°F  66°F  calm  2 mph  none  0.00"  68%  38%  49°F  39°F  30.05"
Tue 02:00 PM  60.1°F  66°F  calm  2 mph  none  0.00"  69%  38%  50°F  38°F  30.05"
Tue 01:00 PM  59.2°F  65°F  calm  2 mph  none  0.00"  75%  39%  51°F  38°F  30.06"
Tue 12:00 PM  57.0°F  63°F  calm  2 mph  none  0.00"  82%  43%  51°F  39°F  30.08"
Tue 11:00 AM  55.4°F  60°F  calm  1 mph  none  0.00"  86%  47%  51°F  39°F  30.09"
Tue 10:00 AM  54.9°F  56°F  calm  1 mph  none  0.00"  86%  54%  51°F  39°F  30.10"
Tue 09:00 AM  54.1°F  51°F  calm  1 mph  none  0.00"  87%  63%  50°F  39°F  30.10"
Tue 08:00 AM  53.8°F  47°F  calm  calm  none  0.00"  88%  71%  50°F  37°F  30.08"
Tue 07:00 AM  53.2°F  44°F  calm  1 mph  none  0.00"  88%  74%  50°F  36°F  30.07"
Tue 06:00 AM  53.1°F  45°F  calm  1 mph  3 mph  0.00"  87%  74%  49°F  36°F  30.06"
Tue 05:00 AM  53.1°F  45°F  calm  1 mph  none  0.00"  87%  73%  49°F  37°F  30.06"
Tue 04:00 AM  53.2°F  46°F  calm  calm  none  0.00"  87%  72%  49°F  37°F  30.05"
Tue 03:00 AM  53.4°F  46°F  calm  1 mph  1 mph  0.00"  84%  71%  49°F  37°F  30.06"
Tue 02:00 AM  53.6°F  47°F  calm  1 mph  none  0.00"  81%  70%  48°F  37°F  30.07"
Tue 01:00 AM  54.7°F  48°F  calm  calm  none  0.00"  87%  68%  51°F  38°F  30.06"
Tue 12:03 AM  55.6°F  49°F  calm  1 mph  none  0.00"  87%  66%  52°F  38°F  30.06"
Mon 11:00 PM  56.5°F  50°F  calm  calm  none  0.00"  86%  64%  52°F  38°F  30.07"
Mon 10:00 PM  56.7°F  51°F  calm  calm  none  0.00"  85%  62%  52°F  38°F  30.07"
Mon 09:00 PM  57.4°F  53°F  calm  1 mph  none  0.00"  83%  59%  52°F  38°F  30.08"

  1. Current weather data. No green row appears if the current weather data is also the high or low for the current day.
  2. High temperature for the current day.
  3. Low temperature for the current day.

The San Jacinto, California weather pages are a service of WeatherCurrents. San Jacinto is located in the heart of the San Jacinto Valley, near Hemet, the Soboba Casino, and at the foot of the San Jacinto Mountains.
Copyright ©2022  WeatherCurrents. All rights reserved. - Submit questions and comments - Privacy Policy

This page automatically refreshes every 10 minutes.